createdAt,value
2016-03-18T00:00:11.443Z,0
2016-03-18T00:01:11.445Z,0
2016-03-18T00:02:11.449Z,0
2016-03-18T00:03:11.467Z,0
2016-03-18T00:04:11.453Z,0
2016-03-18T00:05:11.488Z,0
2016-03-18T00:06:11.459Z,0
2016-03-18T00:07:11.467Z,0
2016-03-18T00:08:11.471Z,0
2016-03-18T00:09:11.504Z,0
2016-03-18T00:10:11.491Z,0
2016-03-18T00:11:11.495Z,0
2016-03-18T00:12:11.528Z,0
2016-03-18T00:13:11.531Z,0
2016-03-18T00:14:11.517Z,0
2016-03-18T00:15:11.505Z,0
2016-03-18T00:16:11.555Z,0
2016-03-18T00:17:11.542Z,0
2016-03-18T00:18:11.544Z,0
2016-03-18T00:19:11.562Z,0
2016-03-18T00:20:11.534Z,0
2016-03-18T00:21:11.552Z,0
2016-03-18T00:22:11.571Z,0
2016-03-18T00:23:11.574Z,0
2016-03-18T00:24:11.576Z,0
2016-03-18T00:25:11.594Z,0
2016-03-18T00:26:11.597Z,0
2016-03-18T00:27:11.615Z,0
2016-03-18T00:28:11.649Z,0
2016-03-18T00:29:11.621Z,0
2016-03-18T00:30:11.482Z,0
2016-03-18T00:31:11.612Z,0
2016-03-18T00:32:11.630Z,0
2016-03-18T00:33:11.633Z,0
2016-03-18T00:34:11.635Z,0
2016-03-18T00:35:11.669Z,0
2016-03-18T00:36:11.500Z,0
2016-03-18T00:37:11.503Z,0
2016-03-18T00:38:11.677Z,0
2016-03-18T00:39:11.665Z,0
2016-03-18T00:40:11.698Z,0
2016-03-18T00:41:11.685Z,0
2016-03-18T00:42:11.703Z,0
2016-03-18T00:43:11.690Z,0
2016-03-18T00:44:11.693Z,0
2016-03-18T00:45:11.711Z,0
2016-03-18T00:46:11.714Z,0
2016-03-18T00:47:11.717Z,0
2016-03-18T00:48:11.735Z,0
2016-03-18T00:49:11.707Z,0
2016-03-18T00:50:11.584Z,0
2016-03-18T00:51:11.743Z,0
2016-03-18T00:52:11.761Z,0
2016-03-18T00:53:11.764Z,0
2016-03-18T00:54:11.767Z,0
2016-03-18T00:55:11.769Z,0
2016-03-18T00:56:11.789Z,0
2016-03-18T00:57:11.775Z,0
2016-03-18T00:58:11.809Z,0
2016-03-18T00:59:11.781Z,0
2016-03-18T01:00:11.800Z,0
2016-03-18T01:01:11.802Z,0
2016-03-18T01:02:11.805Z,0
2016-03-18T01:03:11.807Z,0
2016-03-18T01:04:11.841Z,0
2016-03-18T01:05:11.828Z,0
2016-03-18T01:06:11.846Z,0
2016-03-18T01:07:11.994Z,0
2016-03-18T01:08:11.840Z,0
2016-03-18T01:09:11.843Z,0
2016-03-18T01:10:11.862Z,0
2016-03-18T01:11:11.879Z,0
2016-03-18T01:12:11.868Z,0
2016-03-18T01:13:11.885Z,0
2016-03-18T01:14:11.888Z,0
2016-03-18T01:15:11.891Z,0
2016-03-18T01:16:11.893Z,0
2016-03-18T01:17:11.896Z,0
2016-03-18T01:18:11.898Z,0
2016-03-18T01:19:11.933Z,0
2016-03-18T01:20:11.904Z,0
2016-03-18T01:21:11.782Z,0
2016-03-18T01:22:12.019Z,0
2016-03-18T01:23:11.928Z,0
2016-03-18T01:24:11.947Z,0
2016-03-18T01:25:11.933Z,0
2016-03-18T01:26:11.967Z,0
2016-03-18T01:27:11.955Z,0
2016-03-18T01:28:11.972Z,0
2016-03-18T01:29:11.975Z,0
2016-03-18T01:30:11.993Z,0
2016-03-18T01:31:11.980Z,0
2016-03-18T01:32:11.999Z,0
2016-03-18T01:33:11.985Z,0
2016-03-18T01:34:12.005Z,0
2016-03-18T01:35:12.007Z,0
2016-03-18T01:36:12.010Z,0
2016-03-18T01:37:12.028Z,0
2016-03-18T01:38:12.093Z,0
2016-03-18T01:39:12.034Z,0
2016-03-18T01:40:12.083Z,0
2016-03-18T01:41:12.070Z,0
2016-03-18T01:42:12.057Z,0
2016-03-18T01:43:12.045Z,0
2016-03-18T01:44:12.125Z,0
2016-03-18T01:45:12.065Z,0
2016-03-18T01:46:12.067Z,0
2016-03-18T01:47:12.117Z,0
2016-03-18T01:48:12.073Z,0
2016-03-18T01:49:12.075Z,0
2016-03-18T01:50:12.110Z,0
2016-03-18T01:51:12.097Z,0
2016-03-18T01:52:12.178Z,0
2016-03-18T01:53:12.134Z,0
2016-03-18T01:54:12.105Z,0
2016-03-18T01:55:12.108Z,0
2016-03-18T01:56:12.172Z,0
2016-03-18T01:57:12.176Z,0
2016-03-18T01:58:12.147Z,0
2016-03-18T01:59:12.197Z,0
2016-03-18T02:00:12.152Z,0
2016-03-18T02:01:12.155Z,0
2016-03-18T02:02:12.064Z,0
2016-03-18T02:03:12.161Z,0
2016-03-18T02:04:12.179Z,0
2016-03-18T02:05:12.197Z,0
2016-03-18T02:06:12.185Z,0
2016-03-18T02:07:11.969Z,0
2016-03-18T02:08:12.221Z,0
2016-03-18T02:09:12.208Z,0
2016-03-18T02:10:12.210Z,0
2016-03-18T02:11:12.260Z,0
2016-03-18T02:12:12.215Z,0
2016-03-18T02:13:12.282Z,0
2016-03-18T02:14:12.253Z,0
2016-03-18T02:15:12.240Z,0
2016-03-18T02:16:12.602Z,0
2016-03-18T02:17:12.277Z,0
2016-03-18T02:18:12.264Z,0
2016-03-18T02:19:12.266Z,0
2016-03-18T02:20:12.112Z,0
2016-03-18T02:21:12.303Z,0
2016-03-18T02:22:12.368Z,0
2016-03-18T02:23:12.324Z,0
2016-03-18T02:24:12.280Z,0
2016-03-18T02:25:12.328Z,0
2016-03-18T02:26:12.316Z,0
2016-03-18T02:27:12.334Z,0
2016-03-18T02:28:12.322Z,0
2016-03-18T02:29:12.339Z,0
2016-03-18T02:30:12.358Z,0
2016-03-18T02:31:12.330Z,0
2016-03-18T02:32:12.363Z,0
2016-03-18T02:33:12.350Z,0
2016-03-18T02:34:12.353Z,0
2016-03-18T02:35:12.371Z,0
2016-03-18T02:36:12.375Z,0
2016-03-18T02:37:12.408Z,0
2016-03-18T02:38:12.427Z,0
2016-03-18T02:39:12.382Z,0
2016-03-18T02:40:12.302Z,0
2016-03-18T02:41:12.082Z,0
2016-03-18T02:42:12.289Z,0
2016-03-18T02:43:12.463Z,0
2016-03-18T02:44:12.404Z,0
2016-03-18T02:45:12.406Z,0
2016-03-18T02:46:12.409Z,0
2016-03-18T02:47:12.426Z,0
2016-03-18T02:48:12.259Z,0
2016-03-18T02:49:12.432Z,0
2016-03-18T02:50:12.451Z,0
2016-03-18T02:51:12.423Z,0
2016-03-18T02:52:12.441Z,0
2016-03-18T02:53:12.459Z,0
2016-03-18T02:54:12.446Z,0
2016-03-18T02:55:12.465Z,0
2016-03-18T02:56:12.498Z,0
2016-03-18T02:57:12.470Z,0
2016-03-18T02:58:12.472Z,0
2016-03-18T02:59:12.491Z,0
2016-03-18T03:00:12.493Z,0
2016-03-18T03:01:12.496Z,0
2016-03-18T03:02:12.514Z,0
2016-03-18T03:03:12.516Z,0
2016-03-18T03:04:12.535Z,0
2016-03-18T03:05:12.539Z,0
2016-03-18T03:06:12.588Z,0
2016-03-18T03:07:12.528Z,0
2016-03-18T03:08:12.546Z,0
2016-03-18T03:09:12.549Z,0
2016-03-18T03:10:12.567Z,0
2016-03-18T03:11:12.555Z,0
2016-03-18T03:12:12.573Z,0
2016-03-18T03:13:12.560Z,0
2016-03-18T03:14:12.578Z,0
2016-03-18T03:15:12.581Z,0
2016-03-18T03:16:14.504Z,0
2016-03-18T03:17:12.649Z,0
2016-03-18T03:18:12.651Z,0
2016-03-18T03:19:12.607Z,0
2016-03-18T03:20:12.610Z,0
2016-03-18T03:21:12.457Z,0
2016-03-18T03:22:12.631Z,0
2016-03-18T03:23:12.634Z,0
2016-03-18T03:24:12.651Z,0
2016-03-18T03:25:12.670Z,0
2016-03-18T03:26:12.657Z,0
2016-03-18T03:27:12.691Z,0
2016-03-18T03:28:12.709Z,0
2016-03-18T03:29:12.681Z,0
2016-03-18T03:30:12.667Z,0
2016-03-18T03:31:12.670Z,0
2016-03-18T03:32:12.689Z,0
2016-03-18T03:33:12.707Z,0
2016-03-18T03:34:12.711Z,0
2016-03-18T03:35:12.697Z,0
2016-03-18T03:36:12.731Z,0
2016-03-18T03:37:12.718Z,0
2016-03-18T03:38:12.721Z,0
2016-03-18T03:39:12.707Z,0
2016-03-18T03:40:12.757Z,0
2016-03-18T03:41:12.588Z,0
2016-03-18T03:42:12.732Z,0
2016-03-18T03:43:12.765Z,0
2016-03-18T03:44:12.752Z,0
2016-03-18T03:45:12.755Z,0
2016-03-18T03:46:12.790Z,0
2016-03-18T03:47:12.760Z,0
2016-03-18T03:48:12.826Z,0
2016-03-18T03:49:12.782Z,0
2016-03-18T03:50:12.769Z,0
2016-03-18T03:51:12.818Z,0
2016-03-18T03:52:12.806Z,0
2016-03-18T03:53:12.808Z,0
2016-03-18T03:54:12.826Z,0
2016-03-18T03:55:12.845Z,0
2016-03-18T03:56:12.847Z,0
2016-03-18T03:57:12.850Z,0
2016-03-18T03:58:12.867Z,0
2016-03-18T03:59:12.870Z,0
2016-03-18T04:00:12.858Z,0
2016-03-18T04:01:12.845Z,0
2016-03-18T04:02:12.879Z,0
2016-03-18T04:03:12.866Z,0
2016-03-18T04:04:12.869Z,0
2016-03-18T04:05:12.887Z,0
2016-03-18T04:06:12.905Z,0
2016-03-18T04:07:13.084Z,0
2016-03-18T04:08:12.902Z,0
2016-03-18T04:09:12.889Z,0
2016-03-18T04:10:12.954Z,0
2016-03-18T04:11:12.910Z,0
2016-03-18T04:12:12.928Z,0
2016-03-18T04:13:12.931Z,0
2016-03-18T04:14:12.950Z,0
2016-03-18T04:15:12.937Z,0
2016-03-18T04:16:12.955Z,0
2016-03-18T04:17:12.989Z,0
2016-03-18T04:18:12.944Z,0
2016-03-18T04:19:12.994Z,0
2016-03-18T04:20:12.981Z,0
2016-03-18T04:21:12.968Z,0
2016-03-18T04:22:13.002Z,0
2016-03-18T04:23:12.988Z,0
2016-03-18T04:24:12.991Z,0
2016-03-18T04:25:13.025Z,0
2016-03-18T04:26:13.013Z,0
2016-03-18T04:27:13.030Z,0
2016-03-18T04:28:13.019Z,0
2016-03-18T04:29:13.052Z,0
2016-03-18T04:30:13.039Z,0
2016-03-18T04:31:13.026Z,0
2016-03-18T04:32:13.044Z,0
2016-03-18T04:33:13.062Z,0
2016-03-18T04:34:13.049Z,0
2016-03-18T04:35:13.052Z,0
2016-03-18T04:36:13.087Z,0
2016-03-18T04:37:13.089Z,0
2016-03-18T04:38:13.076Z,0
2016-03-18T04:39:13.094Z,0
2016-03-18T04:40:13.113Z,0
2016-03-18T04:41:13.100Z,0
2016-03-18T04:42:13.134Z,0
2016-03-18T04:43:13.167Z,0
2016-03-18T04:44:13.109Z,0
2016-03-18T04:45:13.126Z,0
2016-03-18T04:46:13.145Z,0
2016-03-18T04:47:13.131Z,0
2016-03-18T04:48:13.134Z,0
2016-03-18T04:49:13.153Z,0
2016-03-18T04:50:13.140Z,0
2016-03-18T04:51:13.158Z,0
2016-03-18T04:52:13.161Z,0
2016-03-18T04:53:13.163Z,0
2016-03-18T04:54:13.213Z,0
2016-03-18T04:55:13.185Z,0
2016-03-18T04:56:13.172Z,0
2016-03-18T04:57:13.205Z,0
2016-03-18T04:58:13.193Z,0
2016-03-18T04:59:13.196Z,0
2016-03-18T05:00:13.199Z,0
2016-03-18T05:01:13.232Z,0
2016-03-18T05:02:13.234Z,0
2016-03-18T05:03:13.221Z,0
2016-03-18T05:04:13.240Z,0
2016-03-18T05:05:13.243Z,0
2016-03-18T05:06:13.229Z,0
2016-03-18T05:07:13.263Z,0
2016-03-18T05:08:13.250Z,0
2016-03-18T05:09:13.253Z,0
2016-03-18T05:10:13.303Z,0
2016-03-18T05:11:13.274Z,0
2016-03-18T05:12:13.276Z,0
2016-03-18T05:13:13.296Z,0
2016-03-18T05:14:13.282Z,0
2016-03-18T05:15:13.317Z,0
2016-03-18T05:16:13.320Z,0
2016-03-18T05:17:13.306Z,0
2016-03-18T05:18:13.309Z,0
2016-03-18T05:19:13.328Z,0
2016-03-18T05:20:13.314Z,0
2016-03-18T05:21:13.333Z,0
2016-03-18T05:22:13.350Z,0
2016-03-18T05:23:13.338Z,0
2016-03-18T05:24:13.341Z,0
2016-03-18T05:25:13.358Z,0
2016-03-18T05:26:13.361Z,0
2016-03-18T05:27:13.363Z,0
2016-03-18T05:28:13.382Z,0
2016-03-18T05:29:13.385Z,0
2016-03-18T05:30:12.638Z,0
2016-03-18T05:31:13.421Z,0
2016-03-18T05:32:13.393Z,0
2016-03-18T05:33:13.412Z,0
2016-03-18T05:34:13.430Z,0
2016-03-18T05:35:13.433Z,0
2016-03-18T05:36:13.436Z,0
2016-03-18T05:37:13.454Z,0
2016-03-18T05:38:13.426Z,0
2016-03-18T05:39:13.428Z,0
2016-03-18T05:40:13.445Z,0
2016-03-18T05:41:13.433Z,0
2016-03-18T05:42:13.467Z,0
2016-03-18T05:43:13.454Z,0
2016-03-18T05:44:13.473Z,0
2016-03-18T05:45:13.475Z,0
2016-03-18T05:46:13.322Z,0
2016-03-18T05:47:13.480Z,0
2016-03-18T05:48:13.499Z,0
2016-03-18T05:49:13.501Z,0
2016-03-18T05:50:13.504Z,0
2016-03-18T05:51:13.506Z,0
2016-03-18T05:52:13.525Z,0
2016-03-18T05:53:13.622Z,0
2016-03-18T05:54:13.531Z,0
2016-03-18T05:55:13.533Z,0
2016-03-18T05:56:13.552Z,0
2016-03-18T05:57:13.555Z,0
2016-03-18T05:58:13.558Z,0
2016-03-18T05:59:13.544Z,0
2016-03-18T06:00:13.562Z,0
2016-03-18T06:01:13.565Z,0
2016-03-18T06:02:13.583Z,0
2016-03-18T06:03:13.586Z,0
2016-03-18T06:04:13.588Z,0
2016-03-18T06:05:13.591Z,0
2016-03-18T06:06:13.609Z,0
2016-03-18T06:07:13.612Z,0
2016-03-18T06:08:13.615Z,0
2016-03-18T06:09:13.618Z,0
2016-03-18T06:10:13.620Z,0
2016-03-18T06:11:13.639Z,0
2016-03-18T06:12:13.767Z,0
2016-03-18T06:13:13.645Z,0
2016-03-18T06:14:13.740Z,0
2016-03-18T06:15:13.650Z,0
2016-03-18T06:16:13.668Z,0
2016-03-18T06:17:13.671Z,0
2016-03-18T06:18:13.673Z,0
2016-03-18T06:19:13.675Z,0
2016-03-18T06:20:13.678Z,0
2016-03-18T06:21:13.525Z,0
2016-03-18T06:22:13.684Z,0
2016-03-18T06:23:13.811Z,0
2016-03-18T06:24:13.705Z,0
2016-03-18T06:25:13.708Z,0
2016-03-18T06:26:13.711Z,0
2016-03-18T06:27:13.728Z,0
2016-03-18T06:28:13.731Z,0
2016-03-18T06:29:13.733Z,0
2016-03-18T06:30:13.753Z,0
2016-03-18T06:31:13.739Z,0
2016-03-18T06:32:13.758Z,0
2016-03-18T06:33:13.760Z,0
2016-03-18T06:34:13.607Z,0
2016-03-18T06:35:13.782Z,0
2016-03-18T06:36:13.785Z,0
2016-03-18T06:37:13.802Z,0
2016-03-18T06:38:13.852Z,0
2016-03-18T06:39:13.808Z,5
2016-03-18T06:40:13.795Z,5
2016-03-18T06:41:13.813Z,5
2016-03-18T06:42:13.815Z,5
2016-03-18T06:43:13.819Z,5
2016-03-18T06:44:13.853Z,5
2016-03-18T06:45:13.840Z,5
2016-03-18T06:46:13.858Z,5
2016-03-18T06:47:13.845Z,5
2016-03-18T06:48:13.848Z,5
2016-03-18T06:49:13.851Z,5
2016-03-18T06:50:13.853Z,5
2016-03-18T06:51:13.872Z,5
2016-03-18T06:52:13.875Z,5
2016-03-18T06:53:13.924Z,5
2016-03-18T06:54:13.895Z,5
2016-03-18T06:55:13.898Z,5
2016-03-18T06:56:13.889Z,5
2016-03-18T06:57:13.880Z,5
2016-03-18T06:58:13.870Z,5
2016-03-18T06:59:13.876Z,5
2016-03-18T07:00:13.882Z,5
2016-03-18T07:01:13.879Z,5
2016-03-18T07:02:13.878Z,5
2016-03-18T07:03:13.923Z,5
2016-03-18T07:04:13.874Z,5
2016-03-18T07:05:13.873Z,5
2016-03-18T07:06:13.874Z,5
2016-03-18T07:07:13.875Z,5
2016-03-18T07:08:13.940Z,5
2016-03-18T07:09:13.894Z,5
2016-03-18T07:10:13.895Z,5
2016-03-18T07:11:13.897Z,5
2016-03-18T07:12:13.900Z,5
2016-03-18T07:13:13.902Z,5
2016-03-18T07:14:13.904Z,5
2016-03-18T07:15:13.906Z,5
2016-03-18T07:16:13.939Z,10
2016-03-18T07:17:13.942Z,10
2016-03-18T07:18:13.960Z,10
2016-03-18T07:19:13.946Z,5
2016-03-18T07:20:13.808Z,5
2016-03-18T07:21:13.968Z,10
2016-03-18T07:22:13.970Z,10
2016-03-18T07:23:14.004Z,10
2016-03-18T07:24:13.975Z,10
2016-03-18T07:25:13.978Z,10
2016-03-18T07:26:13.981Z,10
2016-03-18T07:27:13.984Z,10
2016-03-18T07:28:13.987Z,10
2016-03-18T07:29:14.020Z,10
2016-03-18T07:30:14.007Z,10
2016-03-18T07:31:14.026Z,10
2016-03-18T07:32:14.028Z,10
2016-03-18T07:33:14.031Z,5
2016-03-18T07:34:14.033Z,5
2016-03-18T07:35:14.052Z,5
2016-03-18T07:36:14.055Z,5
2016-03-18T07:37:14.042Z,5
2016-03-18T07:38:13.997Z,5
2016-03-18T07:39:14.063Z,5
2016-03-18T07:40:14.065Z,5
2016-03-18T07:41:14.068Z,10
2016-03-18T07:42:14.086Z,10
2016-03-18T07:43:14.088Z,10
2016-03-18T07:44:14.091Z,10
2016-03-18T07:45:13.938Z,10
2016-03-18T07:46:14.112Z,10
2016-03-18T07:47:14.132Z,10
2016-03-18T07:48:14.118Z,10
2016-03-18T07:49:14.121Z,10
2016-03-18T07:50:14.139Z,10
2016-03-18T07:51:14.142Z,10
2016-03-18T07:52:14.160Z,10
2016-03-18T07:53:14.162Z,10
2016-03-18T07:54:14.150Z,10
2016-03-18T07:55:14.184Z,10
2016-03-18T07:56:14.156Z,10
2016-03-18T07:57:14.206Z,10
2016-03-18T07:58:14.176Z,10
2016-03-18T07:59:14.210Z,10
2016-03-18T08:00:14.042Z,10
2016-03-18T08:01:14.231Z,10
2016-03-18T08:02:14.203Z,10
2016-03-18T08:03:14.222Z,10
2016-03-18T08:04:14.224Z,10
2016-03-18T08:05:14.086Z,15
2016-03-18T08:06:14.275Z,15
2016-03-18T08:07:14.248Z,15
2016-03-18T08:08:14.266Z,15
2016-03-18T08:09:14.252Z,15
2016-03-18T08:10:14.271Z,10
2016-03-18T08:11:14.258Z,10
2016-03-18T08:12:14.291Z,15
2016-03-18T08:13:14.279Z,15
2016-03-18T08:14:14.329Z,15
2016-03-18T08:15:14.284Z,15
2016-03-18T08:16:14.303Z,15
2016-03-18T08:17:14.305Z,15
2016-03-18T08:18:14.308Z,15
2016-03-18T08:19:14.326Z,15
2016-03-18T08:20:14.313Z,15
2016-03-18T08:21:14.348Z,15
2016-03-18T08:22:14.334Z,15
2016-03-18T08:23:14.353Z,15
2016-03-18T08:24:14.356Z,15
2016-03-18T08:25:14.358Z,15
2016-03-18T08:26:14.393Z,15
2016-03-18T08:27:14.379Z,20
2016-03-18T08:28:14.397Z,20
2016-03-18T08:29:14.401Z,20
2016-03-18T08:30:14.387Z,20
2016-03-18T08:31:14.422Z,20
2016-03-18T08:32:14.408Z,20
2016-03-18T08:33:14.442Z,15
2016-03-18T08:34:14.460Z,15
2016-03-18T08:35:14.433Z,20
2016-03-18T08:36:14.450Z,20
2016-03-18T08:37:14.438Z,20
2016-03-18T08:38:14.455Z,20
2016-03-18T08:39:14.458Z,20
2016-03-18T08:40:14.492Z,20
2016-03-18T08:41:14.479Z,20
2016-03-18T08:42:14.560Z,20
2016-03-18T08:43:14.500Z,20
2016-03-18T08:44:14.503Z,20
2016-03-18T08:45:14.491Z,25
2016-03-18T08:46:14.508Z,20
2016-03-18T08:47:14.510Z,20
2016-03-18T08:48:14.530Z,20
2016-03-18T08:49:14.532Z,20
2016-03-18T08:50:14.518Z,20
2016-03-18T08:51:14.601Z,20
2016-03-18T08:52:14.540Z,20
2016-03-18T08:53:14.559Z,20
2016-03-18T08:54:14.593Z,20
2016-03-18T08:55:14.564Z,20
2016-03-18T08:56:14.566Z,25
2016-03-18T08:57:14.632Z,25
2016-03-18T08:58:14.587Z,25
2016-03-18T08:59:14.605Z,25
2016-03-18T09:00:14.639Z,25
2016-03-18T09:01:14.611Z,30
2016-03-18T09:02:14.630Z,30
2016-03-18T09:03:14.633Z,25
2016-03-18T09:04:14.635Z,25
2016-03-18T09:05:14.481Z,25
2016-03-18T09:06:14.672Z,25
2016-03-18T09:07:14.658Z,30
2016-03-18T09:08:14.692Z,30
2016-03-18T09:09:14.663Z,30
2016-03-18T09:10:14.698Z,30
2016-03-18T09:11:14.669Z,30
2016-03-18T09:12:14.719Z,30
2016-03-18T09:13:14.691Z,30
2016-03-18T09:14:14.740Z,30
2016-03-18T09:15:14.711Z,30
2016-03-18T09:16:14.746Z,30
2016-03-18T09:17:14.732Z,30
2016-03-18T09:18:14.751Z,30
2016-03-18T09:19:14.737Z,30
2016-03-18T09:20:14.740Z,30
2016-03-18T09:21:14.759Z,30
2016-03-18T09:22:14.793Z,30
2016-03-18T09:23:14.811Z,30
2016-03-18T09:24:14.767Z,30
2016-03-18T09:25:14.785Z,30
2016-03-18T09:26:14.819Z,30
2016-03-18T09:27:14.790Z,30
2016-03-18T09:28:14.793Z,30
2016-03-18T09:29:14.828Z,30
2016-03-18T09:30:14.830Z,30
2016-03-18T09:31:14.817Z,30
2016-03-18T09:32:14.851Z,30
2016-03-18T09:33:14.853Z,30
2016-03-18T09:34:14.841Z,35
2016-03-18T09:35:14.889Z,30
2016-03-18T09:36:14.862Z,30
2016-03-18T09:37:14.864Z,25
2016-03-18T09:38:14.883Z,25
2016-03-18T09:39:14.885Z,25
2016-03-18T09:40:14.903Z,25
2016-03-18T09:41:14.906Z,25
2016-03-18T09:42:14.908Z,20
2016-03-18T09:43:14.943Z,20
2016-03-18T09:44:14.914Z,20
2016-03-18T09:45:14.948Z,20
2016-03-18T09:46:14.936Z,20
2016-03-18T09:47:14.969Z,20
2016-03-18T09:48:14.940Z,20
2016-03-18T09:49:14.975Z,20
2016-03-18T09:50:14.977Z,20
2016-03-18T09:51:14.964Z,20
2016-03-18T09:52:14.968Z,20
2016-03-18T09:53:14.970Z,20
2016-03-18T09:54:15.004Z,20
2016-03-18T09:55:14.991Z,25
2016-03-18T09:56:14.993Z,25
2016-03-18T09:57:15.043Z,20
2016-03-18T09:58:15.014Z,25
2016-03-18T09:59:15.033Z,25
2016-03-18T10:00:15.035Z,25
2016-03-18T10:01:15.038Z,25
2016-03-18T10:02:15.041Z,25
2016-03-18T10:03:15.059Z,25
2016-03-18T10:04:15.061Z,25
2016-03-18T10:05:15.065Z,25
2016-03-18T10:06:15.083Z,30
2016-03-18T10:07:15.069Z,25
2016-03-18T10:08:15.089Z,25
2016-03-18T10:09:15.153Z,20
2016-03-18T10:10:15.094Z,20
2016-03-18T10:11:15.128Z,20
2016-03-18T10:12:15.114Z,20
2016-03-18T10:13:15.117Z,20
2016-03-18T10:14:15.135Z,15
2016-03-18T10:15:15.138Z,15
2016-03-18T10:16:15.141Z,15
2016-03-18T10:17:15.143Z,15
2016-03-18T10:18:15.147Z,15
2016-03-18T10:19:15.165Z,15
2016-03-18T10:20:15.183Z,15
2016-03-18T10:21:15.185Z,15
2016-03-18T10:22:15.173Z,15
2016-03-18T10:23:15.206Z,15
2016-03-18T10:24:15.225Z,15
2016-03-18T10:25:15.212Z,15
2016-03-18T10:26:15.245Z,15
2016-03-18T10:27:15.218Z,15
2016-03-18T10:28:15.236Z,15
2016-03-18T10:29:15.239Z,15
2016-03-18T10:30:15.241Z,15
2016-03-18T10:31:15.259Z,15
2016-03-18T10:32:15.261Z,20
2016-03-18T10:33:15.281Z,20
2016-03-18T10:34:15.346Z,20
2016-03-18T10:35:15.286Z,20
2016-03-18T10:36:15.336Z,20
2016-03-18T10:37:15.291Z,20
2016-03-18T10:38:15.325Z,20
2016-03-18T10:39:15.359Z,20
2016-03-18T10:40:15.361Z,20
2016-03-18T10:41:15.349Z,20
2016-03-18T10:42:15.336Z,20
2016-03-18T10:43:15.355Z,20
2016-03-18T10:44:15.341Z,20
2016-03-18T10:45:15.360Z,20
2016-03-18T10:46:15.362Z,20
2016-03-18T10:47:15.412Z,20
2016-03-18T10:48:15.383Z,20
2016-03-18T10:49:15.401Z,20
2016-03-18T10:50:15.389Z,20
2016-03-18T10:51:15.438Z,20
2016-03-18T10:52:15.440Z,20
2016-03-18T10:53:15.413Z,20
2016-03-18T10:54:15.587Z,20
2016-03-18T10:55:15.465Z,15
2016-03-18T10:56:15.421Z,15
2016-03-18T10:57:15.485Z,15
2016-03-18T10:58:15.457Z,15
2016-03-18T10:59:15.476Z,15
2016-03-18T11:00:15.447Z,20
2016-03-18T11:01:15.496Z,20
2016-03-18T11:02:15.546Z,20
2016-03-18T11:03:15.486Z,20
2016-03-18T11:04:15.520Z,25
2016-03-18T11:05:15.507Z,25
2016-03-18T11:06:15.509Z,30
2016-03-18T11:07:15.512Z,30
2016-03-18T11:08:15.531Z,30
2016-03-18T11:09:15.721Z,30
2016-03-18T11:10:15.536Z,30
2016-03-18T11:11:15.555Z,30
2016-03-18T11:12:15.557Z,30
2016-03-18T11:13:15.560Z,25
2016-03-18T11:14:15.578Z,25
2016-03-18T11:15:15.597Z,30
2016-03-18T11:16:15.583Z,30
2016-03-18T11:17:15.602Z,30
2016-03-18T11:18:15.605Z,30
2016-03-18T11:19:15.607Z,30
2016-03-18T11:20:15.626Z,30
2016-03-18T11:21:15.629Z,30
2016-03-18T11:22:15.632Z,30
2016-03-18T11:23:15.649Z,35
2016-03-18T11:24:15.652Z,30
2016-03-18T11:25:15.654Z,30
2016-03-18T11:26:15.657Z,25
2016-03-18T11:27:15.645Z,25
2016-03-18T11:28:15.648Z,25
2016-03-18T11:29:15.696Z,25
2016-03-18T11:30:15.683Z,25
2016-03-18T11:31:15.702Z,25
2016-03-18T11:32:15.720Z,25
2016-03-18T11:33:15.707Z,25
2016-03-18T11:34:15.709Z,25
2016-03-18T11:35:15.728Z,20
2016-03-18T11:36:15.731Z,20
2016-03-18T11:37:15.749Z,20
2016-03-18T11:38:15.752Z,20
2016-03-18T11:39:15.802Z,20
2016-03-18T11:40:15.773Z,20
2016-03-18T11:41:15.775Z,20
2016-03-18T11:42:15.778Z,20
2016-03-18T11:43:15.781Z,20
2016-03-18T11:44:15.784Z,20
2016-03-18T11:45:15.818Z,20
2016-03-18T11:46:15.821Z,20
2016-03-18T11:47:15.824Z,25
2016-03-18T11:48:15.841Z,25
2016-03-18T11:49:15.829Z,25
2016-03-18T11:50:15.862Z,25
2016-03-18T11:51:15.850Z,25
2016-03-18T11:52:15.883Z,25
2016-03-18T11:53:15.854Z,25
2016-03-18T11:54:15.904Z,25
2016-03-18T11:55:15.876Z,25
2016-03-18T11:56:15.879Z,30
2016-03-18T11:57:15.897Z,30
2016-03-18T11:58:15.904Z,30
2016-03-18T11:59:15.907Z,30
2016-03-18T12:00:15.909Z,30
2016-03-18T12:01:16.537Z,30
2016-03-18T12:02:15.931Z,30
2016-03-18T12:03:15.933Z,30
2016-03-18T12:04:15.936Z,30
2016-03-18T12:05:15.986Z,30
2016-03-18T12:06:15.973Z,30
2016-03-18T12:07:15.961Z,30
2016-03-18T12:08:15.978Z,30
2016-03-18T12:09:15.981Z,30
2016-03-18T12:10:15.983Z,30
2016-03-18T12:11:15.861Z,30
2016-03-18T12:12:16.005Z,30
2016-03-18T12:13:16.007Z,30
2016-03-18T12:14:16.025Z,25
2016-03-18T12:15:16.074Z,25
2016-03-18T12:16:16.047Z,25
2016-03-18T12:17:16.049Z,25
2016-03-18T12:18:16.052Z,25
2016-03-18T12:19:16.055Z,25
2016-03-18T12:20:16.073Z,25
2016-03-18T12:21:16.091Z,25
2016-03-18T12:22:16.094Z,30
2016-03-18T12:23:16.113Z,30
2016-03-18T12:24:16.115Z,30
2016-03-18T12:25:16.102Z,30
2016-03-18T12:26:16.120Z,30
2016-03-18T12:27:16.123Z,30
2016-03-18T12:28:16.110Z,25
2016-03-18T12:29:16.128Z,25
2016-03-18T12:30:16.162Z,25
2016-03-18T12:31:16.150Z,25
2016-03-18T12:32:16.153Z,30
2016-03-18T12:33:16.170Z,30
2016-03-18T12:34:16.173Z,30
2016-03-18T12:35:16.161Z,30
2016-03-18T12:36:16.226Z,30
2016-03-18T12:37:16.197Z,30
2016-03-18T12:38:16.184Z,30
2016-03-18T12:39:16.202Z,30
2016-03-18T12:40:16.220Z,30
2016-03-18T12:41:16.223Z,25
2016-03-18T12:42:16.226Z,25
2016-03-18T12:43:16.261Z,25
2016-03-18T12:44:16.247Z,25
2016-03-18T12:45:16.266Z,25
2016-03-18T12:46:16.252Z,25
2016-03-18T12:47:16.286Z,25
2016-03-18T12:48:16.274Z,25
2016-03-18T12:49:16.323Z,25
2016-03-18T12:50:16.279Z,25
2016-03-18T12:51:16.313Z,25
2016-03-18T12:52:16.300Z,25
2016-03-18T12:53:16.349Z,25
2016-03-18T12:54:16.321Z,25
2016-03-18T12:55:16.307Z,25
2016-03-18T12:56:15.576Z,25
2016-03-18T12:57:16.360Z,25
2016-03-18T12:58:16.348Z,25
2016-03-18T12:59:16.350Z,25
2016-03-18T13:00:16.368Z,25
2016-03-18T13:01:16.370Z,25
2016-03-18T13:02:16.373Z,20
2016-03-18T13:03:16.406Z,20
2016-03-18T13:04:16.379Z,20
2016-03-18T13:05:16.412Z,20
2016-03-18T13:06:16.415Z,20
2016-03-18T13:07:16.403Z,20
2016-03-18T13:08:16.467Z,20
2016-03-18T13:09:16.455Z,20
2016-03-18T13:10:16.440Z,20
2016-03-18T13:11:16.459Z,20
2016-03-18T13:12:16.445Z,20
2016-03-18T13:13:16.464Z,20
2016-03-18T13:14:16.467Z,15
2016-03-18T13:15:16.469Z,15
2016-03-18T13:16:16.472Z,15
2016-03-18T13:17:16.474Z,15
2016-03-18T13:18:16.477Z,15
2016-03-18T13:19:16.495Z,15
2016-03-18T13:20:16.498Z,20
2016-03-18T13:21:16.501Z,20
2016-03-18T13:22:16.520Z,20
2016-03-18T13:23:16.523Z,20
2016-03-18T13:24:16.525Z,20
2016-03-18T13:25:16.544Z,20
2016-03-18T13:26:16.561Z,20
2016-03-18T13:27:16.549Z,20
2016-03-18T13:28:16.567Z,20
2016-03-18T13:29:16.569Z,20
2016-03-18T13:30:16.588Z,20
2016-03-18T13:31:16.575Z,20
2016-03-18T13:32:16.593Z,20
2016-03-18T13:33:16.596Z,20
2016-03-18T13:34:16.630Z,15
2016-03-18T13:35:16.616Z,20
2016-03-18T13:36:16.619Z,20
2016-03-18T13:37:16.638Z,20
2016-03-18T13:38:16.625Z,20
2016-03-18T13:39:16.643Z,15
2016-03-18T13:40:16.646Z,15
2016-03-18T13:41:16.649Z,15
2016-03-18T13:42:16.667Z,15
2016-03-18T13:43:16.670Z,15
2016-03-18T13:44:16.688Z,20
2016-03-18T13:45:16.690Z,15
2016-03-18T13:46:16.693Z,15
2016-03-18T13:47:16.695Z,15
2016-03-18T13:48:16.714Z,15
2016-03-18T13:49:16.733Z,15
2016-03-18T13:50:16.735Z,15
2016-03-18T13:51:16.738Z,15
2016-03-18T13:52:16.741Z,15
2016-03-18T13:53:16.759Z,15
2016-03-18T13:54:16.778Z,15
2016-03-18T13:55:16.764Z,15
2016-03-18T13:56:16.767Z,15
2016-03-18T13:57:16.770Z,15
2016-03-18T13:58:16.804Z,15
2016-03-18T13:59:16.791Z,15
2016-03-18T14:00:16.794Z,15
2016-03-18T14:01:16.812Z,15
2016-03-18T14:02:16.814Z,15
2016-03-18T14:03:16.817Z,15
2016-03-18T14:04:16.836Z,15
2016-03-18T14:05:16.838Z,15
2016-03-18T14:06:16.857Z,15
2016-03-18T14:07:16.875Z,15
2016-03-18T14:08:16.893Z,15
2016-03-18T14:09:16.865Z,15
2016-03-18T14:10:16.868Z,15
2016-03-18T14:11:16.885Z,15
2016-03-18T14:12:16.904Z,15
2016-03-18T14:13:16.906Z,10
2016-03-18T14:14:16.909Z,10
2016-03-18T14:15:16.912Z,15
2016-03-18T14:16:16.915Z,10
2016-03-18T14:17:16.917Z,10
2016-03-18T14:18:16.920Z,10
2016-03-18T14:19:16.939Z,10
2016-03-18T14:20:16.941Z,10
2016-03-18T14:21:16.944Z,10
2016-03-18T14:22:16.947Z,10
2016-03-18T14:23:16.995Z,10
2016-03-18T14:24:16.967Z,10
2016-03-18T14:25:16.986Z,10
2016-03-18T14:26:17.004Z,10
2016-03-18T14:27:16.992Z,10
2016-03-18T14:28:16.994Z,10
2016-03-18T14:29:17.012Z,10
2016-03-18T14:30:17.047Z,10
2016-03-18T14:31:17.033Z,10